createdAt,value
2018-10-11T00:00:48.701Z,28.00
2018-10-11T00:03:16.925Z,31.60
2018-10-11T00:05:44.384Z,32.67
2018-10-11T00:08:12.194Z,32.80
2018-10-11T00:10:39.668Z,31.12
2018-10-11T00:13:07.516Z,32.83
2018-10-11T00:15:35.021Z,31.60
2018-10-11T00:18:02.515Z,28.83
2018-10-11T00:20:30.006Z,31.27
2018-10-11T00:22:57.527Z,31.62
2018-10-11T00:25:25.694Z,30.45
2018-10-11T00:27:53.316Z,31.37
2018-10-11T00:30:20.871Z,32.65
2018-10-11T00:32:48.323Z,31.17
2018-10-11T00:35:15.848Z,32.23
2018-10-11T00:37:43.839Z,32.90
2018-10-11T00:40:11.760Z,33.13
2018-10-11T00:42:40.081Z,35.90
2018-10-11T00:45:07.623Z,34.45
2018-10-11T00:47:35.664Z,35.17
2018-10-11T00:50:03.188Z,30.15
2018-10-11T00:52:31.031Z,31.37
2018-10-11T00:54:58.885Z,35.85
2018-10-11T00:57:26.721Z,36.65
2018-10-11T00:59:54.494Z,32.40
2018-10-11T01:02:22.013Z,32.15
2018-10-11T01:04:49.712Z,34.10
2018-10-11T01:07:17.565Z,32.78
2018-10-11T01:09:45.344Z,32.13
2018-10-11T01:12:13.109Z,33.15
2018-10-11T01:14:40.626Z,35.75
2018-10-11T01:17:08.432Z,34.90
2018-10-11T01:19:35.972Z,34.63
2018-10-11T01:22:03.437Z,33.83
2018-10-11T01:24:30.958Z,34.20
2018-10-11T01:26:58.419Z,36.23
2018-10-11T01:29:25.990Z,34.67
2018-10-11T01:31:53.493Z,34.85
2018-10-11T01:34:21.561Z,35.17
2018-10-11T01:36:49.433Z,33.08
2018-10-11T01:39:17.509Z,37.98
2018-10-11T01:41:45.045Z,34.20
2018-10-11T01:44:12.851Z,34.88
2018-10-11T01:46:40.579Z,41.02
2018-10-11T01:49:08.052Z,34.95
2018-10-11T01:51:35.556Z,36.25
2018-10-11T01:54:03.044Z,34.17
2018-10-11T01:56:31.251Z,34.85
2018-10-11T01:58:59.313Z,34.63
2018-10-11T02:01:26.846Z,39.40
2018-10-11T02:03:54.747Z,37.83
2018-10-11T02:06:22.203Z,35.20
2018-10-11T02:08:49.761Z,37.53
2018-10-11T02:11:17.568Z,35.45
2018-10-11T02:13:45.064Z,38.30
2018-10-11T02:16:12.685Z,37.70
2018-10-11T02:18:40.839Z,37.93
2018-10-11T02:21:08.425Z,37.30
2018-10-11T02:23:35.977Z,37.28
2018-10-11T02:26:03.538Z,37.57
2018-10-11T02:28:31.569Z,38.25
2018-10-11T02:30:59.335Z,37.10
2018-10-11T02:33:27.152Z,39.30
2018-10-11T02:35:55.164Z,35.60
2018-10-11T02:38:23.245Z,36.75
2018-10-11T02:40:51.049Z,41.73
2018-10-11T02:43:18.575Z,36.00
2018-10-11T02:45:46.329Z,35.68
2018-10-11T02:48:13.849Z,40.45
2018-10-11T02:50:41.366Z,38.88
2018-10-11T02:53:08.868Z,40.12
2018-10-11T02:55:36.443Z,42.03
2018-10-11T02:58:09.802Z,35.30
2018-10-11T03:00:37.739Z,36.08
2018-10-11T03:03:08.057Z,35.63
2018-10-11T03:05:36.676Z,38.45
2018-10-11T03:08:04.560Z,39.42
2018-10-11T03:10:32.377Z,41.58
2018-10-11T03:13:00.249Z,36.83
2018-10-11T03:15:27.837Z,36.63
2018-10-11T03:17:55.311Z,41.33
2018-10-11T03:20:23.034Z,35.27
2018-10-11T03:22:50.838Z,34.80
2018-10-11T03:25:18.365Z,35.13
2018-10-11T03:27:45.860Z,39.75
2018-10-11T03:30:13.829Z,37.23
2018-10-11T03:32:41.327Z,37.05
2018-10-11T03:35:09.285Z,33.42
2018-10-11T03:37:36.752Z,37.95
2018-10-11T03:40:04.231Z,38.95
2018-10-11T03:42:31.775Z,35.70
2018-10-11T03:45:00.142Z,38.65
2018-10-11T03:47:27.588Z,36.45
2018-10-11T03:49:55.384Z,37.58
2018-10-11T03:52:22.942Z,38.05
2018-10-11T03:54:50.457Z,35.98
2018-10-11T03:57:18.308Z,35.68
2018-10-11T03:59:46.143Z,34.27
2018-10-11T04:02:13.621Z,39.45
2018-10-11T04:04:41.356Z,35.05
2018-10-11T04:07:09.136Z,38.42
2018-10-11T04:09:36.644Z,35.58
2018-10-11T04:12:04.452Z,33.55
2018-10-11T04:14:31.915Z,35.48
2018-10-11T04:16:59.781Z,39.08
2018-10-11T04:19:27.543Z,36.23
2018-10-11T04:21:55.036Z,35.25
2018-10-11T04:24:22.507Z,32.10
2018-10-11T04:26:50.005Z,36.65
2018-10-11T04:29:17.845Z,37.75
2018-10-11T04:31:45.312Z,39.17
2018-10-11T04:34:13.197Z,34.65
2018-10-11T04:36:41.001Z,34.75
2018-10-11T04:39:09.200Z,37.98
2018-10-11T04:41:37.058Z,39.18
2018-10-11T04:44:04.564Z,35.65
2018-10-11T04:46:32.105Z,35.13
2018-10-11T04:48:59.605Z,35.90
2018-10-11T04:51:27.163Z,39.70
2018-10-11T04:53:55.229Z,34.70
2018-10-11T04:56:23.579Z,34.75
2018-10-11T04:58:51.061Z,35.73
2018-10-11T05:01:18.869Z,35.00
2018-10-11T05:03:46.393Z,37.65
2018-10-11T05:06:14.889Z,36.57
2018-10-11T05:08:42.659Z,37.42
2018-10-11T05:11:10.624Z,34.53
2018-10-11T05:13:41.885Z,35.60
2018-10-11T05:16:09.308Z,37.17
2018-10-11T05:18:38.713Z,36.68
2018-10-11T05:21:06.496Z,34.53
2018-10-11T05:23:33.993Z,33.63
2018-10-11T05:26:01.813Z,35.80
2018-10-11T05:28:29.564Z,41.50
2018-10-11T05:30:57.342Z,39.00
2018-10-11T05:33:25.405Z,38.40
2018-10-11T05:35:53.478Z,40.00
2018-10-11T05:38:21.549Z,39.45
2018-10-11T05:40:49.616Z,38.80
2018-10-11T05:43:17.590Z,40.95
2018-10-11T05:45:52.421Z,36.03
2018-10-11T05:48:20.288Z,37.07
2018-10-11T05:50:48.218Z,40.23
2018-10-11T05:53:16.431Z,35.75
2018-10-11T05:55:44.740Z,36.70
2018-10-11T05:58:12.313Z,36.48
2018-10-11T06:00:39.806Z,36.40
2018-10-11T06:03:07.718Z,35.92
2018-10-11T06:05:35.217Z,33.73
2018-10-11T06:08:02.784Z,36.57
2018-10-11T06:10:31.437Z,34.33
2018-10-11T06:12:59.231Z,33.80
2018-10-11T06:15:27.033Z,35.52
2018-10-11T06:17:54.603Z,35.08
2018-10-11T06:20:22.764Z,33.55
2018-10-11T06:22:50.286Z,33.85
2018-10-11T06:27:58.561Z,33.80
2018-10-11T06:30:26.339Z,34.15
2018-10-11T06:32:54.392Z,32.33
2018-10-11T06:35:21.989Z,34.43
2018-10-11T06:37:50.128Z,32.45
2018-10-11T06:40:17.669Z,31.40
2018-10-11T06:42:45.368Z,28.83
2018-10-11T06:45:13.935Z,31.37
2018-10-11T06:47:42.253Z,31.90
2018-10-11T06:50:10.066Z,31.80
2018-10-11T06:52:38.272Z,31.77
2018-10-11T06:55:06.775Z,28.50
2018-10-11T06:57:34.758Z,30.82
2018-10-11T07:00:02.405Z,30.77
2018-10-11T07:02:29.985Z,33.92
2018-10-11T07:04:57.521Z,30.75
2018-10-11T07:07:25.045Z,27.80
2018-10-11T07:09:52.533Z,28.73
2018-10-11T07:12:20.371Z,31.82
2018-10-11T07:14:48.509Z,30.45
2018-10-11T07:17:16.412Z,30.50
2018-10-11T07:19:44.180Z,30.33
2018-10-11T07:22:12.080Z,28.35
2018-10-11T07:24:39.568Z,30.05
2018-10-11T07:27:07.396Z,25.85
2018-10-11T07:29:35.545Z,26.10
2018-10-11T07:32:03.456Z,27.30
2018-10-11T07:34:30.987Z,26.27
2018-10-11T07:36:58.529Z,27.17
2018-10-11T07:39:26.605Z,24.18
2018-10-11T07:41:54.430Z,25.23
2018-10-11T07:44:21.894Z,27.48
2018-10-11T07:46:49.468Z,28.00
2018-10-11T07:49:16.896Z,24.32
2018-10-11T07:51:44.360Z,28.62
2018-10-11T07:54:12.372Z,24.40
2018-10-11T07:56:39.857Z,21.70
2018-10-11T07:59:07.330Z,26.10
2018-10-11T08:01:34.887Z,23.47
2018-10-11T08:04:03.020Z,24.77
2018-10-11T08:06:30.484Z,23.85
2018-10-11T08:08:58.096Z,23.92
2018-10-11T08:11:26.338Z,24.92
2018-10-11T08:13:54.082Z,26.55
2018-10-11T08:16:21.785Z,21.55
2018-10-11T08:18:49.562Z,22.05
2018-10-11T08:21:17.237Z,21.55
2018-10-11T08:23:44.955Z,19.65
2018-10-11T08:26:13.528Z,19.60
2018-10-11T08:28:40.738Z,23.40
2018-10-11T08:31:08.938Z,22.67
2018-10-11T08:33:36.478Z,23.75
2018-10-11T08:36:04.593Z,24.73
2018-10-11T08:38:32.306Z,26.42
2018-10-11T08:41:00.010Z,22.27
2018-10-11T08:43:27.831Z,22.55
2018-10-11T08:45:55.516Z,20.90
2018-10-11T08:48:22.989Z,22.80
2018-10-11T08:50:51.745Z,21.87
2018-10-11T08:53:19.243Z,26.73
2018-10-11T08:55:47.101Z,27.50
2018-10-11T08:58:14.642Z,20.15
2018-10-11T09:00:42.327Z,20.33
2018-10-11T09:03:09.840Z,21.48
2018-10-11T09:05:37.444Z,25.90
2018-10-11T09:08:05.520Z,25.03
2018-10-11T09:10:38.344Z,26.07
2018-10-11T09:13:00.893Z,19.20
2018-10-11T09:15:28.764Z,23.15
2018-10-11T09:17:56.499Z,20.82
2018-10-11T09:20:23.984Z,20.67
2018-10-11T09:22:51.493Z,21.50
2018-10-11T09:25:19.271Z,21.10
2018-10-11T09:27:47.142Z,22.27
2018-10-11T09:30:14.944Z,26.95
2018-10-11T09:32:42.789Z,21.17
2018-10-11T09:35:10.261Z,23.67
2018-10-11T09:37:38.118Z,23.12
2018-10-11T09:40:05.788Z,23.70
2018-10-11T09:42:33.671Z,22.27
2018-10-11T09:45:01.502Z,22.27
2018-10-11T09:47:29.556Z,18.25
2018-10-11T09:49:57.357Z,19.87
2018-10-11T09:52:24.844Z,20.83
2018-10-11T09:54:52.633Z,26.95
2018-10-11T09:57:36.383Z,21.60
2018-10-11T10:00:08.868Z,19.27
2018-10-11T10:02:36.356Z,22.10
2018-10-11T10:05:04.359Z,19.70
2018-10-11T10:07:32.505Z,21.85
2018-10-11T10:10:00.105Z,20.30
2018-10-11T10:12:27.896Z,20.95
2018-10-11T10:14:55.377Z,19.57
2018-10-11T10:17:23.167Z,20.72
2018-10-11T10:19:50.677Z,20.75
2018-10-11T10:22:18.211Z,19.43
2018-10-11T10:24:45.727Z,21.87
2018-10-11T10:27:13.322Z,22.05
2018-10-11T10:29:40.748Z,18.62
2018-10-11T10:32:08.555Z,25.50
2018-10-11T10:34:36.340Z,21.48
2018-10-11T10:37:03.819Z,20.27
2018-10-11T10:39:31.563Z,15.95
2018-10-11T10:41:59.329Z,19.80
2018-10-11T10:44:26.786Z,20.30
2018-10-11T10:46:54.299Z,20.85
2018-10-11T10:49:21.792Z,19.07
2018-10-11T10:51:49.268Z,20.08
2018-10-11T10:54:22.233Z,17.23
2018-10-11T10:56:50.194Z,18.95
2018-10-11T10:59:17.660Z,21.42
2018-10-11T11:01:45.444Z,16.60
2018-10-11T11:04:13.004Z,18.30
2018-10-11T11:06:40.480Z,21.17
2018-10-11T11:09:10.064Z,22.55
2018-10-11T11:11:38.083Z,21.23
2018-10-11T11:14:05.905Z,18.52
2018-10-11T11:16:33.669Z,18.37
2018-10-11T11:19:01.172Z,16.77
2018-10-11T11:21:29.200Z,19.45
2018-10-11T11:23:56.963Z,17.85
2018-10-11T11:26:24.732Z,16.67
2018-10-11T11:28:52.813Z,17.92
2018-10-11T11:31:20.580Z,16.70
2018-10-11T11:33:48.352Z,17.92
2018-10-11T11:36:15.974Z,15.57
2018-10-11T11:38:43.464Z,14.53
2018-10-11T11:41:11.216Z,17.62
2018-10-11T11:43:38.758Z,15.50
2018-10-11T11:46:06.330Z,15.07
2018-10-11T11:48:33.788Z,20.68
2018-10-11T11:51:01.272Z,21.68
2018-10-11T11:53:29.319Z,17.75
2018-10-11T11:55:56.802Z,17.45
2018-10-11T11:58:24.560Z,17.35
2018-10-11T12:00:52.309Z,19.67
2018-10-11T12:03:20.076Z,23.00
2018-10-11T12:05:48.153Z,16.97
2018-10-11T12:08:16.222Z,18.20
2018-10-11T12:10:44.346Z,16.25
2018-10-11T12:13:12.719Z,15.43
2018-10-11T12:15:41.590Z,15.77
2018-10-11T12:18:09.376Z,22.98
2018-10-11T12:20:38.476Z,16.05
2018-10-11T12:23:07.314Z,17.30
2018-10-11T12:25:35.022Z,17.20
2018-10-11T12:28:02.487Z,16.37
2018-10-11T12:30:30.419Z,18.87
2018-10-11T12:32:58.479Z,24.98
2018-10-11T12:35:26.281Z,18.45
2018-10-11T12:37:54.313Z,17.67
2018-10-11T12:40:21.989Z,20.25
2018-10-11T12:42:49.287Z,19.90
2018-10-11T12:45:17.401Z,15.55
2018-10-11T12:47:44.848Z,20.45
2018-10-11T12:50:13.202Z,17.87
2018-10-11T12:52:40.840Z,18.37
2018-10-11T12:55:08.495Z,19.10
2018-10-11T12:57:36.211Z,19.40
2018-10-11T13:00:03.665Z,17.73
2018-10-11T13:02:31.284Z,20.10
2018-10-11T13:04:59.112Z,20.35
2018-10-11T13:07:26.869Z,18.40
2018-10-11T13:09:54.622Z,16.25
2018-10-11T13:12:22.432Z,18.37
2018-10-11T13:14:49.892Z,12.82
2018-10-11T13:17:17.863Z,17.80
2018-10-11T13:19:45.703Z,13.50
2018-10-11T13:22:13.162Z,18.48
2018-10-11T13:24:45.997Z,18.95
2018-10-11T13:27:08.723Z,15.83
2018-10-11T13:29:36.455Z,18.48
2018-10-11T13:32:03.921Z,16.43
2018-10-11T13:34:32.055Z,16.50
2018-10-11T13:36:59.492Z,17.13
2018-10-11T13:39:26.954Z,17.70
2018-10-11T13:41:54.791Z,13.70
2018-10-11T13:44:23.144Z,17.20
2018-10-11T13:46:51.213Z,17.97
2018-10-11T13:49:18.664Z,20.23
2018-10-11T13:51:46.159Z,16.67
2018-10-11T13:54:16.471Z,14.95
2018-10-11T13:56:43.925Z,14.80
2018-10-11T13:59:14.266Z,17.57
2018-10-11T14:01:39.210Z,19.05
2018-10-11T14:04:07.172Z,14.90
2018-10-11T14:06:35.310Z,19.07
2018-10-11T14:09:03.148Z,16.25
2018-10-11T14:11:30.634Z,21.30
2018-10-11T14:13:58.373Z,14.15
2018-10-11T14:16:25.854Z,15.45
2018-10-11T14:18:53.601Z,14.30
2018-10-11T14:21:21.340Z,19.42
2018-10-11T14:23:49.173Z,15.70
2018-10-11T14:26:16.896Z,16.25
2018-10-11T14:28:44.687Z,16.23
2018-10-11T14:31:12.380Z,18.00
2018-10-11T14:33:40.088Z,15.65
2018-10-11T14:36:07.879Z,19.15
2018-10-11T14:38:35.329Z,18.23
2018-10-11T14:41:02.819Z,20.10
2018-10-11T14:43:30.395Z,15.35
2018-10-11T14:45:57.816Z,15.53
2018-10-11T14:48:25.540Z,16.02
2018-10-11T14:50:53.064Z,17.23
2018-10-11T14:53:20.507Z,15.00
2018-10-11T14:55:48.224Z,14.03
2018-10-11T14:58:15.988Z,14.87
2018-10-11T15:00:43.580Z,16.97
2018-10-11T15:03:11.100Z,14.93
2018-10-11T15:05:38.876Z,16.90
2018-10-11T15:08:06.907Z,17.82
2018-10-11T15:10:34.487Z,20.37
2018-10-11T15:13:02.123Z,16.02
2018-10-11T15:15:29.636Z,13.73
2018-10-11T15:17:57.467Z,15.30
2018-10-11T15:20:24.910Z,17.45
2018-10-11T15:22:52.373Z,16.93
2018-10-11T15:25:20.084Z,20.20
2018-10-11T15:27:47.783Z,13.18
2018-10-11T15:30:15.271Z,17.40
2018-10-11T15:32:42.960Z,18.02
2018-10-11T15:35:10.434Z,17.03
2018-10-11T15:37:37.896Z,17.73
2018-10-11T15:40:05.736Z,16.95
2018-10-11T15:42:33.193Z,14.97
2018-10-11T15:45:01.085Z,16.23
2018-10-11T15:47:28.565Z,15.63
2018-10-11T15:49:56.325Z,19.60
2018-10-11T15:52:23.833Z,17.73
2018-10-11T15:54:51.323Z,15.27
2018-10-11T15:57:18.804Z,16.67
2018-10-11T15:59:46.280Z,14.95
2018-10-11T16:02:13.984Z,13.13
2018-10-11T16:04:42.057Z,20.70
2018-10-11T16:07:09.826Z,18.20
2018-10-11T16:09:37.355Z,17.73
2018-10-11T16:12:05.173Z,18.50
2018-10-11T16:14:32.887Z,20.72
2018-10-11T16:17:00.364Z,19.25
2018-10-11T16:19:28.440Z,16.60
2018-10-11T16:21:55.917Z,15.50
2018-10-11T16:24:23.665Z,15.48
2018-10-11T16:26:51.221Z,22.85
2018-10-11T16:29:18.968Z,17.33
2018-10-11T16:31:47.093Z,16.45
2018-10-11T16:34:14.821Z,19.82
2018-10-11T16:36:42.588Z,20.10
2018-10-11T16:39:10.916Z,20.35
2018-10-11T16:41:38.355Z,17.20
2018-10-11T16:44:06.068Z,17.85
2018-10-11T16:46:34.088Z,25.92
2018-10-11T16:49:01.928Z,22.17
2018-10-11T16:51:29.379Z,15.80
2018-10-11T16:53:56.857Z,24.10
2018-10-11T16:56:24.377Z,18.75
2018-10-11T16:58:52.749Z,16.75
2018-10-11T17:01:20.492Z,17.52
2018-10-11T17:03:48.322Z,20.60
2018-10-11T17:06:16.105Z,19.92
2018-10-11T17:08:44.290Z,22.05
2018-10-11T17:11:11.765Z,21.25
2018-10-11T17:13:39.595Z,20.65
2018-10-11T17:16:07.498Z,25.40
2018-10-11T17:18:34.924Z,18.57
2018-10-11T17:21:02.384Z,23.40
2018-10-11T17:23:30.437Z,18.42
2018-10-11T17:25:58.159Z,17.17
2018-10-11T17:28:25.969Z,19.23
2018-10-11T17:30:53.433Z,18.37
2018-10-11T17:33:20.969Z,23.98
2018-10-11T17:35:48.759Z,60.40
2018-10-11T17:38:16.510Z,24.37
2018-10-11T17:40:44.292Z,21.57
2018-10-11T17:43:11.776Z,19.07
2018-10-11T17:45:39.352Z,19.90
2018-10-11T17:48:06.800Z,19.32
2018-10-11T17:50:34.536Z,22.60
2018-10-11T17:53:02.063Z,18.62
2018-10-11T17:55:29.488Z,17.10
2018-10-11T17:57:57.265Z,19.42
2018-10-11T18:00:24.764Z,19.45
2018-10-11T18:02:52.277Z,19.67
2018-10-11T18:05:19.826Z,20.20
2018-10-11T18:07:47.641Z,17.63
2018-10-11T18:10:15.092Z,22.42
2018-10-11T18:12:42.973Z,18.55
2018-10-11T18:15:11.042Z,18.05
2018-10-11T18:17:38.583Z,19.42
2018-10-11T18:20:06.668Z,21.07
2018-10-11T18:22:34.536Z,25.65
2018-10-11T18:25:02.305Z,21.02
2018-10-11T18:27:29.737Z,20.97
2018-10-11T18:29:57.534Z,21.40
2018-10-11T18:32:25.256Z,24.03
2018-10-11T18:34:52.698Z,23.25
2018-10-11T18:37:20.550Z,19.05
2018-10-11T18:39:48.376Z,27.10
2018-10-11T18:42:16.149Z,46.45
2018-10-11T18:44:44.284Z,22.45
2018-10-11T18:47:12.084Z,21.17
2018-10-11T18:49:39.822Z,22.55
2018-10-11T18:52:07.673Z,22.63
2018-10-11T18:54:35.783Z,20.32
2018-10-11T18:57:03.369Z,19.30
2018-10-11T18:59:31.106Z,22.30
2018-10-11T19:01:58.877Z,20.50
2018-10-11T19:04:26.442Z,24.43
2018-10-11T19:06:54.199Z,19.30
2018-10-11T19:09:22.096Z,27.13
2018-10-11T19:11:49.557Z,28.47
2018-10-11T19:14:17.086Z,22.52
2018-10-11T19:16:44.682Z,24.02
2018-10-11T19:19:12.196Z,24.80
2018-10-11T19:21:40.060Z,23.30
2018-10-11T19:24:07.577Z,21.97
2018-10-11T19:26:35.068Z,23.30
2018-10-11T19:29:02.521Z,22.90
2018-10-11T19:31:30.033Z,22.45
2018-10-11T19:33:57.495Z,22.87
2018-10-11T19:36:24.963Z,20.45
2018-10-11T19:38:52.804Z,22.70
2018-10-11T19:41:20.254Z,28.77
2018-10-11T19:43:47.732Z,18.20
2018-10-11T19:46:15.269Z,23.83
2018-10-11T19:48:42.812Z,24.35
2018-10-11T19:51:10.270Z,25.00
2018-10-11T19:53:37.792Z,23.40
2018-10-11T19:56:05.328Z,25.72
2018-10-11T19:58:33.175Z,21.50
2018-10-11T20:01:01.252Z,26.80
2018-10-11T20:03:28.759Z,22.58
2018-10-11T20:05:56.271Z,22.10
2018-10-11T20:08:23.823Z,25.08
2018-10-11T20:10:51.325Z,22.95
2018-10-11T20:13:18.911Z,23.60
2018-10-11T20:15:46.705Z,25.35
2018-10-11T20:18:14.261Z,20.95
2018-10-11T20:20:42.089Z,23.45
2018-10-11T20:23:09.528Z,24.35
2018-10-11T20:25:37.297Z,21.10
2018-10-11T20:28:05.057Z,22.52
2018-10-11T20:30:32.614Z,24.80
2018-10-11T20:33:00.115Z,24.47
2018-10-11T20:35:27.824Z,21.12
2018-10-11T20:37:56.077Z,28.42
2018-10-11T20:40:23.660Z,20.40
2018-10-11T20:42:51.160Z,24.57
2018-10-11T20:45:18.685Z,26.27
2018-10-11T20:47:46.157Z,24.70
2018-10-11T20:50:13.628Z,23.95
2018-10-11T20:52:41.137Z,18.93
2018-10-11T20:55:09.201Z,25.68
2018-10-11T20:57:37.043Z,22.67
2018-10-11T21:00:04.612Z,23.60
2018-10-11T21:02:32.393Z,22.85
2018-10-11T21:05:00.463Z,25.15
2018-10-11T21:07:28.536Z,23.80
2018-10-11T21:09:56.025Z,24.90
2018-10-11T21:12:23.573Z,26.17
2018-10-11T21:14:51.453Z,26.48
2018-10-11T21:17:19.540Z,25.35
2018-10-11T21:19:47.062Z,24.15
2018-10-11T21:22:14.543Z,24.05
2018-10-11T21:24:42.592Z,27.10
2018-10-11T21:27:10.596Z,26.45
2018-10-11T21:29:38.727Z,18.67
2018-10-11T21:32:06.384Z,20.93
2018-10-11T21:34:33.878Z,24.05
2018-10-11T21:37:01.669Z,21.33
2018-10-11T21:39:29.485Z,17.85
2018-10-11T21:41:57.265Z,26.27
2018-10-11T21:44:25.316Z,22.23
2018-10-11T21:46:52.796Z,26.52
2018-10-11T21:49:20.506Z,20.90
2018-10-11T21:51:48.073Z,23.87
2018-10-11T21:54:15.873Z,20.97
2018-10-11T21:56:43.600Z,21.23
2018-10-11T21:59:11.101Z,18.80
2018-10-11T22:01:38.975Z,20.57
2018-10-11T22:04:06.785Z,24.75
2018-10-11T22:06:34.590Z,20.15
2018-10-11T22:09:02.200Z,20.17
2018-10-11T22:11:29.693Z,21.50
2018-10-11T22:13:57.249Z,19.20
2018-10-11T22:16:25.336Z,16.90
2018-10-11T22:18:52.865Z,19.85
2018-10-11T22:21:20.386Z,24.85
2018-10-11T22:23:47.860Z,19.67
2018-10-11T22:26:15.737Z,19.42
2018-10-11T22:28:43.547Z,19.85
2018-10-11T22:31:12.657Z,20.55
2018-10-11T22:33:41.035Z,21.17
2018-10-11T22:36:09.300Z,20.43
2018-10-11T22:38:36.812Z,28.30
2018-10-11T22:41:04.623Z,23.07
2018-10-11T22:43:32.380Z,21.65
2018-10-11T22:45:59.909Z,23.25
2018-10-11T22:48:27.400Z,26.97
2018-10-11T22:50:54.941Z,23.05
2018-10-11T22:53:22.481Z,23.03
2018-10-11T22:55:50.009Z,25.48
2018-10-11T22:58:17.530Z,18.75
2018-10-11T23:00:45.369Z,22.30
2018-10-11T23:03:12.834Z,21.60
2018-10-11T23:05:40.641Z,23.95
2018-10-11T23:08:08.101Z,23.32
2018-10-11T23:10:36.169Z,19.23
2018-10-11T23:13:03.604Z,19.07
2018-10-11T23:15:31.375Z,21.65
2018-10-11T23:17:59.471Z,25.67
2018-10-11T23:20:27.272Z,23.03
2018-10-11T23:22:55.718Z,25.12
2018-10-11T23:25:23.175Z,21.10
2018-10-11T23:27:50.970Z,20.02
2018-10-11T23:30:18.461Z,27.47
2018-10-11T23:32:46.253Z,19.75
2018-10-11T23:35:13.772Z,19.70
2018-10-11T23:37:41.684Z,20.95
2018-10-11T23:40:10.269Z,21.15
2018-10-11T23:42:37.913Z,20.32
2018-10-11T23:45:05.462Z,19.40
2018-10-11T23:47:33.256Z,23.70
2018-10-11T23:50:01.077Z,27.37
2018-10-11T23:52:28.961Z,24.87
2018-10-11T23:54:56.737Z,22.10
2018-10-11T23:57:24.512Z,22.13
2018-10-11T23:59:52.588Z,21.20
